createdAt,value
2023-03-31T00:01:00.998Z,2.30
2023-03-31T00:04:05.629Z,2.03
2023-03-31T00:07:08.528Z,2.25
2023-03-31T00:13:19.408Z,2.72
2023-03-31T00:16:22.404Z,2.70
2023-03-31T00:19:25.133Z,2.80
2023-03-31T00:22:27.920Z,2.67
2023-03-31T00:25:30.764Z,2.92
2023-03-31T00:28:33.878Z,2.55
2023-03-31T00:31:36.823Z,2.90
2023-03-31T00:34:39.694Z,2.70
2023-03-31T00:37:43.516Z,2.90
2023-03-31T00:40:47.439Z,2.95
2023-03-31T00:44:19.120Z,2.60
2023-03-31T00:47:23.273Z,2.93
2023-03-31T00:50:30.111Z,3.00
2023-03-31T00:53:35.034Z,3.15
2023-03-31T00:56:43.919Z,2.90
2023-03-31T00:59:53.648Z,3.25
2023-03-31T01:03:00.007Z,2.90
2023-03-31T01:06:06.684Z,2.70
2023-03-31T01:09:10.067Z,2.50
2023-03-31T01:12:16.034Z,2.45
2023-03-31T01:15:20.050Z,2.42
2023-03-31T01:18:23.946Z,2.20
2023-03-31T01:21:39.260Z,2.55
2023-03-31T01:25:01.859Z,2.40
2023-03-31T01:28:16.649Z,2.25
2023-03-31T01:31:38.141Z,2.53
2023-03-31T01:34:57.830Z,2.43
2023-03-31T01:38:19.512Z,2.60
2023-03-31T01:41:31.089Z,2.58
2023-03-31T01:44:39.746Z,2.15
2023-03-31T01:47:54.727Z,2.30
2023-03-31T01:51:07.807Z,2.20
2023-03-31T01:54:29.435Z,2.40
2023-03-31T01:57:39.712Z,2.40
2023-03-31T02:00:52.098Z,1.98
2023-03-31T02:04:07.400Z,1.80
2023-03-31T02:07:19.356Z,2.30
2023-03-31T02:10:24.355Z,2.30
2023-03-31T02:13:29.361Z,2.10
2023-03-31T02:16:34.968Z,2.38
2023-03-31T02:19:41.289Z,1.95
2023-03-31T02:22:48.973Z,2.20
2023-03-31T02:25:54.327Z,2.30
2023-03-31T02:28:58.742Z,2.03
2023-03-31T02:32:26.662Z,2.20
2023-03-31T02:35:29.637Z,2.05
2023-03-31T02:38:37.188Z,2.37
2023-03-31T02:41:41.490Z,2.33
2023-03-31T02:44:44.429Z,2.33
2023-03-31T02:47:47.294Z,2.30
2023-03-31T02:50:59.668Z,2.28
2023-03-31T02:54:20.757Z,2.30
2023-03-31T02:58:07.282Z,2.17
2023-03-31T03:01:27.664Z,2.70
2023-03-31T03:04:43.352Z,2.25
2023-03-31T03:08:04.122Z,2.13
2023-03-31T03:11:26.304Z,2.70
2023-03-31T03:14:40.884Z,2.70
2023-03-31T03:17:48.416Z,2.65
2023-03-31T03:20:51.286Z,2.70
2023-03-31T03:23:54.987Z,2.80
2023-03-31T03:26:57.903Z,3.13
2023-03-31T03:30:02.810Z,3.00
2023-03-31T03:33:07.094Z,3.35
2023-03-31T03:36:10.831Z,3.90
2023-03-31T03:39:13.805Z,3.47
2023-03-31T03:42:17.079Z,3.43
2023-03-31T03:45:19.795Z,3.20
2023-03-31T03:48:22.541Z,3.80
2023-03-31T03:51:25.630Z,3.20
2023-03-31T03:54:28.443Z,3.78
2023-03-31T03:57:31.354Z,3.67
2023-03-31T04:00:34.402Z,3.80
2023-03-31T04:03:37.218Z,3.88
2023-03-31T04:06:40.065Z,3.30
2023-03-31T04:09:43.143Z,3.95
2023-03-31T04:12:45.961Z,3.97
2023-03-31T04:15:48.870Z,3.53
2023-03-31T04:18:56.929Z,3.42
2023-03-31T04:22:02.986Z,3.30
2023-03-31T04:25:15.131Z,3.83
2023-03-31T04:28:18.094Z,4.43
2023-03-31T04:31:25.695Z,4.35
2023-03-31T04:34:35.397Z,4.18
2023-03-31T04:37:39.063Z,3.38
2023-03-31T04:40:41.899Z,3.30
2023-03-31T04:43:44.968Z,2.90
2023-03-31T04:46:47.738Z,2.83
2023-03-31T04:49:50.527Z,3.05
2023-03-31T04:52:53.353Z,2.78
2023-03-31T04:55:56.445Z,3.20
2023-03-31T04:58:59.167Z,2.40
2023-03-31T05:02:02.073Z,3.55
2023-03-31T05:05:05.190Z,3.13
2023-03-31T05:08:08.241Z,3.30
2023-03-31T05:11:11.507Z,3.25
2023-03-31T05:14:14.349Z,2.90
2023-03-31T05:17:18.057Z,3.38
2023-03-31T05:20:21.780Z,3.28
2023-03-31T05:23:24.525Z,3.05
2023-03-31T05:26:27.336Z,2.72
2023-03-31T05:29:31.299Z,2.83
2023-03-31T05:32:34.244Z,2.88
2023-03-31T05:35:37.130Z,2.80
2023-03-31T05:38:40.946Z,2.80
2023-03-31T05:41:43.827Z,2.95
2023-03-31T05:44:46.666Z,2.20
2023-03-31T05:47:49.478Z,2.42
2023-03-31T05:50:52.491Z,2.47
2023-03-31T05:53:55.406Z,2.40
2023-03-31T05:56:58.649Z,2.10
2023-03-31T06:00:01.506Z,2.27
2023-03-31T06:03:11.639Z,2.30
2023-03-31T06:06:18.487Z,2.22
2023-03-31T06:09:22.138Z,2.22
2023-03-31T06:12:25.215Z,2.15
2023-03-31T06:15:28.197Z,2.70
2023-03-31T06:18:33.081Z,1.90
2023-03-31T06:21:36.124Z,2.30
2023-03-31T06:24:38.955Z,2.70
2023-03-31T06:27:41.670Z,2.28
2023-03-31T06:30:44.585Z,2.47
2023-03-31T06:33:48.276Z,2.40
2023-03-31T06:36:51.146Z,2.17
2023-03-31T06:39:54.007Z,1.90
2023-03-31T06:42:56.871Z,2.50
2023-03-31T06:45:59.796Z,2.13
2023-03-31T06:49:04.430Z,2.00
2023-03-31T06:52:07.691Z,1.80
2023-03-31T06:55:10.620Z,1.85
2023-03-31T06:58:14.534Z,2.20
2023-03-31T07:01:21.168Z,1.97
2023-03-31T07:04:25.554Z,1.52
2023-03-31T07:07:32.508Z,1.92
2023-03-31T07:10:35.685Z,1.80
2023-03-31T07:13:38.731Z,1.70
2023-03-31T07:16:41.791Z,2.30
2023-03-31T07:19:48.288Z,2.03
2023-03-31T07:22:51.417Z,2.38
2023-03-31T07:25:54.999Z,2.20
2023-03-31T07:29:05.814Z,3.25
2023-03-31T07:32:10.105Z,2.47
2023-03-31T07:35:13.606Z,2.42
2023-03-31T07:38:16.658Z,1.40
2023-03-31T07:41:21.834Z,1.50
2023-03-31T07:44:24.830Z,2.10
2023-03-31T07:47:28.566Z,1.90
2023-03-31T07:50:31.573Z,2.20
2023-03-31T07:53:37.278Z,2.00
2023-03-31T07:56:40.660Z,2.10
2023-03-31T07:59:48.828Z,1.73
2023-03-31T08:02:53.073Z,1.80
2023-03-31T08:05:56.661Z,1.73
2023-03-31T08:09:01.916Z,1.40
2023-03-31T08:12:06.868Z,1.35
2023-03-31T08:15:11.415Z,2.10
2023-03-31T08:18:14.801Z,1.67
2023-03-31T08:21:23.014Z,1.80
2023-03-31T08:24:27.312Z,1.70
2023-03-31T08:27:43.541Z,1.55
2023-03-31T08:30:53.553Z,1.50
2023-03-31T08:33:57.743Z,1.50
2023-03-31T08:37:01.229Z,1.80
2023-03-31T08:40:06.041Z,1.92
2023-03-31T08:43:43.505Z,1.85
2023-03-31T08:47:18.364Z,1.83
2023-03-31T08:50:25.772Z,2.00
2023-03-31T08:53:39.632Z,1.50
2023-03-31T08:56:47.588Z,1.50
2023-03-31T08:59:51.508Z,1.40
2023-03-31T09:03:16.820Z,1.58
2023-03-31T09:06:34.931Z,1.60
2023-03-31T09:10:20.891Z,1.65
2023-03-31T09:13:42.415Z,2.20
2023-03-31T09:16:45.577Z,1.75
2023-03-31T09:19:57.154Z,2.03
2023-03-31T09:23:29.866Z,1.73
2023-03-31T09:26:39.515Z,2.10
2023-03-31T09:30:04.237Z,1.85
2023-03-31T09:33:12.718Z,1.80
2023-03-31T09:36:22.617Z,1.70
2023-03-31T09:39:26.089Z,1.73
2023-03-31T09:42:29.034Z,1.45
2023-03-31T09:45:34.405Z,1.30
2023-03-31T09:48:39.584Z,1.50
2023-03-31T09:52:19.125Z,1.55
2023-03-31T09:55:43.298Z,2.17
2023-03-31T09:58:49.037Z,1.92
2023-03-31T10:01:54.132Z,2.00
2023-03-31T10:04:57.124Z,1.60
2023-03-31T10:08:15.193Z,1.60
2023-03-31T10:11:18.700Z,1.60
2023-03-31T10:14:45.892Z,1.60
2023-03-31T10:20:59.444Z,2.45
2023-03-31T10:24:09.607Z,2.00
2023-03-31T10:27:30.553Z,1.60
2023-03-31T10:30:38.249Z,1.40
2023-03-31T10:33:46.544Z,1.60
2023-03-31T10:36:52.147Z,1.60
2023-03-31T10:40:06.950Z,2.00
2023-03-31T10:43:18.618Z,1.90
2023-03-31T10:46:39.375Z,1.80
2023-03-31T10:49:44.883Z,2.15
2023-03-31T10:52:49.302Z,1.63
2023-03-31T10:56:44.769Z,1.65
2023-03-31T10:59:54.465Z,1.20
2023-03-31T11:03:15.697Z,1.35
2023-03-31T11:06:32.064Z,1.38
2023-03-31T11:09:50.104Z,1.30
2023-03-31T11:13:05.929Z,1.70
2023-03-31T11:16:08.870Z,1.30
2023-03-31T11:19:34.810Z,1.83
2023-03-31T11:22:55.164Z,1.95
2023-03-31T11:26:13.886Z,1.80
2023-03-31T11:29:32.013Z,1.83
2023-03-31T11:33:03.228Z,1.60
2023-03-31T11:36:29.170Z,1.90
2023-03-31T11:40:08.224Z,1.15
2023-03-31T11:43:36.675Z,1.48
2023-03-31T11:46:46.462Z,1.55
2023-03-31T11:49:55.694Z,1.70
2023-03-31T11:53:27.612Z,1.90
2023-03-31T11:56:37.949Z,2.20
2023-03-31T11:59:46.978Z,1.30
2023-03-31T12:03:41.701Z,1.52
2023-03-31T12:06:47.582Z,1.93
2023-03-31T12:10:23.295Z,1.52
2023-03-31T12:13:41.256Z,1.70
2023-03-31T12:16:48.735Z,2.03
2023-03-31T12:19:59.175Z,1.80
2023-03-31T12:23:05.921Z,1.40
2023-03-31T12:26:46.128Z,1.95
2023-03-31T12:29:59.618Z,1.42
2023-03-31T12:33:08.013Z,1.58
2023-03-31T12:36:42.126Z,1.40
2023-03-31T12:40:16.766Z,1.70
2023-03-31T12:43:46.529Z,1.60
2023-03-31T12:47:17.793Z,1.23
2023-03-31T12:50:35.871Z,1.90
2023-03-31T12:54:03.626Z,1.67
2023-03-31T12:57:09.449Z,1.60
2023-03-31T13:00:26.217Z,1.10
2023-03-31T13:03:35.570Z,2.00
2023-03-31T13:06:38.532Z,1.77
2023-03-31T13:09:48.503Z,1.50
2023-03-31T13:13:01.283Z,1.43
2023-03-31T13:16:05.202Z,1.17
2023-03-31T13:19:11.019Z,1.70
2023-03-31T13:22:50.511Z,1.80
2023-03-31T13:25:55.760Z,1.90
2023-03-31T13:29:17.655Z,1.40
2023-03-31T13:32:27.825Z,1.90
2023-03-31T13:35:34.221Z,1.33
2023-03-31T13:38:45.808Z,1.55
2023-03-31T13:42:08.035Z,1.27
2023-03-31T13:45:43.220Z,1.13
2023-03-31T13:48:55.289Z,1.40
2023-03-31T13:52:09.627Z,1.60
2023-03-31T13:55:29.019Z,1.60
2023-03-31T13:59:16.939Z,1.50
2023-03-31T14:02:28.482Z,1.60
2023-03-31T14:05:39.980Z,1.80
2023-03-31T14:08:51.976Z,1.88
2023-03-31T14:11:55.025Z,1.40
2023-03-31T14:15:18.614Z,1.60
2023-03-31T14:18:27.399Z,1.57
2023-03-31T14:21:57.381Z,1.80
2023-03-31T14:25:33.698Z,1.35
2023-03-31T14:29:20.757Z,1.20
2023-03-31T14:32:39.819Z,1.65
2023-03-31T14:36:02.267Z,1.37
2023-03-31T14:39:09.497Z,1.60
2023-03-31T14:42:18.813Z,1.67
2023-03-31T14:45:26.763Z,1.50
2023-03-31T14:48:33.360Z,1.80
2023-03-31T14:51:36.458Z,1.60
2023-03-31T14:54:41.374Z,1.45
2023-03-31T14:57:47.600Z,1.77
2023-03-31T15:00:50.970Z,1.70
2023-03-31T15:03:55.622Z,1.38
2023-03-31T15:07:02.681Z,1.40
2023-03-31T15:10:07.043Z,1.67
2023-03-31T15:13:15.611Z,1.90
2023-03-31T15:16:30.675Z,1.83
2023-03-31T15:19:36.996Z,1.75
2023-03-31T15:22:40.325Z,1.80
2023-03-31T15:25:44.532Z,1.98
2023-03-31T15:28:59.177Z,1.42
2023-03-31T15:32:03.635Z,1.63
2023-03-31T15:38:27.694Z,1.90
2023-03-31T15:41:32.118Z,1.95
2023-03-31T15:44:39.094Z,2.08
2023-03-31T15:47:55.005Z,1.98
2023-03-31T15:51:06.634Z,2.75
2023-03-31T15:54:45.144Z,2.60
2023-03-31T15:57:47.996Z,2.08
2023-03-31T16:01:02.474Z,2.10
2023-03-31T16:04:12.246Z,1.60
2023-03-31T16:07:29.150Z,1.50
2023-03-31T16:10:35.350Z,1.33
2023-03-31T16:13:42.137Z,1.70
2023-03-31T16:16:56.624Z,1.27
2023-03-31T16:20:23.035Z,2.10
2023-03-31T16:23:30.115Z,2.03
2023-03-31T16:26:33.810Z,1.73
2023-03-31T16:29:38.545Z,2.35
2023-03-31T16:33:02.189Z,2.20
2023-03-31T16:36:05.783Z,2.63
2023-03-31T16:39:09.305Z,2.95
2023-03-31T16:42:12.224Z,3.03
2023-03-31T16:45:15.179Z,2.50
2023-03-31T16:48:28.395Z,2.45
2023-03-31T16:51:31.353Z,2.22
2023-03-31T16:54:34.547Z,1.95
2023-03-31T16:57:37.343Z,2.47
2023-03-31T17:00:40.732Z,2.40
2023-03-31T17:03:44.011Z,2.05
2023-03-31T17:09:50.586Z,2.38
2023-03-31T17:12:53.553Z,2.37
2023-03-31T17:16:04.614Z,2.97
2023-03-31T17:19:17.507Z,3.05
2023-03-31T17:22:20.472Z,2.60
2023-03-31T17:25:23.631Z,2.97
2023-03-31T17:28:26.610Z,2.60
2023-03-31T17:31:30.757Z,3.35
2023-03-31T17:34:33.524Z,3.17
2023-03-31T17:37:37.492Z,3.85
2023-03-31T17:40:40.996Z,3.13
2023-03-31T17:43:49.157Z,3.17
2023-03-31T17:46:52.627Z,3.78
2023-03-31T17:49:55.593Z,3.95
2023-03-31T17:52:58.850Z,3.47
2023-03-31T17:56:03.383Z,2.95
2023-03-31T17:59:06.730Z,2.80
2023-03-31T18:02:13.253Z,2.67
2023-03-31T18:05:18.201Z,3.65
2023-03-31T18:08:22.073Z,3.58
2023-03-31T18:11:24.982Z,3.60
2023-03-31T18:14:29.030Z,2.27
2023-03-31T18:17:31.959Z,2.60
2023-03-31T18:20:35.049Z,2.30
2023-03-31T18:23:39.041Z,2.15
2023-03-31T18:26:41.868Z,2.08
2023-03-31T18:29:44.867Z,1.93
2023-03-31T18:32:48.227Z,2.40
2023-03-31T18:35:51.300Z,2.60
2023-03-31T18:38:55.550Z,3.40
2023-03-31T18:41:59.728Z,3.17
2023-03-31T18:45:03.277Z,3.53
2023-03-31T18:48:06.513Z,2.90
2023-03-31T18:51:09.825Z,3.00
2023-03-31T18:54:12.920Z,3.70
2023-03-31T18:57:16.353Z,4.32
2023-03-31T19:00:20.719Z,4.37
2023-03-31T19:03:24.373Z,3.22
2023-03-31T19:06:27.990Z,3.10
2023-03-31T19:09:31.209Z,2.72
2023-03-31T19:12:34.671Z,2.75
2023-03-31T19:15:37.571Z,3.13
2023-03-31T19:18:41.247Z,2.70
2023-03-31T19:21:45.021Z,2.65
2023-03-31T19:24:48.120Z,2.17
2023-03-31T19:27:51.918Z,3.28
2023-03-31T19:30:56.890Z,2.50
2023-03-31T19:34:01.448Z,2.70
2023-03-31T19:37:05.155Z,3.20
2023-03-31T19:40:10.252Z,3.63
2023-03-31T19:43:23.696Z,3.72
2023-03-31T19:46:26.920Z,4.03
2023-03-31T19:49:30.112Z,4.47
2023-03-31T19:52:33.269Z,4.72
2023-03-31T19:55:37.766Z,4.75
2023-03-31T19:58:41.515Z,4.60
2023-03-31T20:01:44.840Z,4.97
2023-03-31T20:04:48.672Z,4.82
2023-03-31T20:07:51.927Z,4.55
2023-03-31T20:11:04.120Z,3.97
2023-03-31T20:14:07.681Z,3.88
2023-03-31T20:17:12.992Z,3.67
2023-03-31T20:20:16.161Z,4.65
2023-03-31T20:23:18.923Z,4.28
2023-03-31T20:26:25.314Z,3.45
2023-03-31T20:29:28.711Z,3.63
2023-03-31T20:32:32.533Z,3.80
2023-03-31T20:35:37.796Z,3.10
2023-03-31T20:38:43.189Z,2.72
2023-03-31T20:41:47.525Z,2.97
2023-03-31T20:44:50.704Z,3.05
2023-03-31T20:47:53.554Z,3.00
2023-03-31T20:50:57.653Z,3.45
2023-03-31T20:54:02.033Z,3.17
2023-03-31T20:57:07.361Z,3.10
2023-03-31T21:00:11.416Z,3.25
2023-03-31T21:03:14.626Z,3.33
2023-03-31T21:06:18.770Z,3.22
2023-03-31T21:09:21.993Z,4.07
2023-03-31T21:12:25.212Z,3.60
2023-03-31T21:15:27.970Z,3.85
2023-03-31T21:18:32.950Z,3.90
2023-03-31T21:21:36.228Z,4.13
2023-03-31T21:24:39.023Z,3.88
2023-03-31T21:27:41.992Z,4.00
2023-03-31T21:30:56.468Z,4.38
2023-03-31T21:34:01.512Z,3.50
2023-03-31T21:37:04.960Z,3.63
2023-03-31T21:40:08.666Z,3.50
2023-03-31T21:43:12.386Z,3.63
2023-03-31T21:46:17.258Z,3.40
2023-03-31T21:49:20.187Z,4.13
2023-03-31T21:52:23.107Z,4.07
2023-03-31T21:55:25.918Z,4.65
2023-03-31T21:58:30.007Z,3.60
2023-03-31T22:01:32.898Z,4.00
2023-03-31T22:04:36.026Z,4.30
2023-03-31T22:07:38.770Z,4.20
2023-03-31T22:10:41.495Z,5.47
2023-03-31T22:13:44.704Z,4.63
2023-03-31T22:16:47.888Z,4.47
2023-03-31T22:19:50.784Z,4.20
2023-03-31T22:22:53.687Z,5.03
2023-03-31T22:25:56.416Z,4.32
2023-03-31T22:28:59.259Z,3.92
2023-03-31T22:32:02.218Z,2.92
2023-03-31T22:35:05.529Z,2.63
2023-03-31T22:38:08.793Z,2.20
2023-03-31T22:41:11.906Z,2.17
2023-03-31T22:44:15.676Z,1.50
2023-03-31T22:47:18.554Z,1.55
2023-03-31T22:50:21.785Z,0.97
2023-03-31T22:53:25.042Z,0.80
2023-03-31T22:56:28.439Z,0.80
2023-03-31T22:59:31.588Z,0.90
2023-03-31T23:02:34.386Z,0.70
2023-03-31T23:05:37.386Z,0.87
2023-03-31T23:08:41.173Z,0.90
2023-03-31T23:11:45.161Z,0.90
2023-03-31T23:14:48.097Z,0.60
2023-03-31T23:17:50.946Z,0.90
2023-03-31T23:20:53.735Z,0.80
2023-03-31T23:23:59.762Z,1.02
2023-03-31T23:27:02.481Z,1.10
2023-03-31T23:30:06.389Z,1.20
2023-03-31T23:33:09.240Z,1.00
2023-03-31T23:36:17.249Z,0.60
2023-03-31T23:39:20.087Z,0.82
2023-03-31T23:42:23.026Z,1.67
2023-03-31T23:45:25.896Z,1.23
2023-03-31T23:48:28.604Z,1.63
2023-03-31T23:51:31.862Z,1.43
2023-03-31T23:54:34.982Z,1.38
2023-03-31T23:57:37.767Z,1.40
